Brooks, KY

1:21 AM EST on November 28, 2014 (GMT -0500)
Louisville International-Standiford | Change Station
CLOSE
Current Station
Airport
Location: Louisville,
Elevation: 489 ft
Nearby Weather Stations

Elev 489 ft 38.17 °N, 85.74 °W | Updated 25 minutes ago

Partly Cloudy
Partly Cloudy
28 °F
Feels Like 20 °F
N
8
Wind Variable Wind from West

Today
High -- | Low -- °F
--% Chance of Precip.
Yesterday
High -- | Low -- °F
Precip. -- in
7:37 AM 5:24 PM
Waxing Crescent, 37% visible
Pressure 30.44 in
Visibility 10.0 miles
Clouds Few 2700 ft
Mostly Cloudy 3600 ft
Mostly Cloudy 8000 ft
Windchill 20 °F
Dew Point 20 °F
Humidity 72%
Rainfall 0.00 in
Snow Depth Not available.
UV 0 out of 12
Pollen .10 out of 12
Air Quality Not available.
Flu Activity Not available.
METAR KSDF 280556Z 28007KT 10SM FEW027 BKN036 BKN080 M02/M07 A3043 RMK AO2 SLP308 60000 T10221067 11011 21022 57006

More Conditions Fewer Conditions

Pressure 30.44 in
Visibility 10.0 miles
Clouds Few 2700 ft
Mostly Cloudy 3600 ft
Mostly Cloudy 8000 ft
Windchill 20 °F
Dew Point 20 °F
Humidity 72%
Rainfall 0.00 in
Snow Depth Not available.
UV 0 out of 12
Pollen .10 out of 12
Air Quality Not available.
Flu Activity Not available.
METAR KSDF 280556Z 28007KT 10SM FEW027 BKN036 BKN080 M02/M07 A3043 RMK AO2 SLP308 60000 T10221067 11011 21022 57006

More Conditions Fewer Conditions

10-Day Weather Forecast

Almanac

Astronomy

Nov. 28, 2014 Rise Set
Actual Time
Civil Twilight
Nautical Twilight
Astronomical Twilight
Moon
Length of Visible Light
Length of Day
Tomorrow will be .
, % of the Moon is Illuminated

Today's Extremes

State Highs State Lows

Community

WunderPhotos

Upload Photos

1,774,199 photos uploaded!

WunderBlogs® & News

Nearby

Air Quality

  Air Quality AQ Index Pollutant
Not available.

Snow Depth

Station Depth Elevation

Earthquake Activity

City Distance Mag. Time & Date
Minimum magnitude displayed is 2.5.

Coastal Water Temperatures

Place Temperature

Nearby Weather Stations